Time;durP1;ratioP1;P1;durP2;ratioP2;P2;SDS_P1;SDS_P2;PMS_P1;PMS_P2;Temp;Humidity;BMP_temperature;BMP_pressure;BME280_temperature;BME280_humidity;BME280_pressure;Samples;Min_cycle;Max_cycle;Signal;HPM_P1;HPM_P2
2022/12/18 00:01:33;;;;;;;70.70;35.85;;;;;;;2.60;65.56;99534.91;5091376;28;20043;-47
2022/12/18 00:04:01;;;;;;;52.38;29.15;;;;;;;2.60;65.41;99534.91;5091268;28;20513;-47
2022/12/18 00:06:29;;;;;;;46.60;26.88;;;;;;;2.66;65.39;99540.53;5091169;28;20123;-47
2022/12/18 00:08:57;;;;;;;45.30;25.08;;;;;;;2.60;64.93;99528.91;5091107;28;20379;-47
2022/12/18 00:11:25;;;;;;;53.95;28.80;;;;;;;2.48;64.60;99532.53;5092433;28;20016;-47
2022/12/18 00:13:52;;;;;;;53.88;30.63;;;;;;;2.39;64.99;99527.16;5092477;28;20024;-47
2022/12/18 00:16:21;;;;;;;132.82;89.80;;;;;;;2.30;65.30;99525.31;5092355;28;20070;-47
2022/12/18 00:18:48;;;;;;;77.68;41.10;;;;;;;2.20;65.71;99527.03;5090979;28;20055;-47
2022/12/18 00:21:15;;;;;;;61.55;31.17;;;;;;;2.24;65.71;99525.84;5092216;28;20062;-47
2022/12/18 00:23:43;;;;;;;47.85;28.42;;;;;;;2.12;66.69;99516.47;5092020;28;20078;-48
2022/12/18 00:26:23;;;;;;;54.35;31.48;;;;;;;2.16;67.25;99515.28;5107839;28;20058;-47
2022/12/18 00:28:49;;;;;;;47.45;26.75;;;;;;;2.27;67.48;99510.03;5090796;28;20081;-48
2022/12/18 00:31:25;;;;;;;158.13;33.90;;;;;;;2.09;67.71;99512.34;5090772;28;20491;-47
2022/12/18 00:33:51;;;;;;;;;;;;;;;1.99;68.29;99514.06;5092558;28;20016;-47
2022/12/18 00:36:22;;;;;;;128.43;93.87;;;;;;;1.92;68.98;99518.09;5090781;28;19938;-48
2022/12/18 00:38:48;;;;;;;309.33;181.52;;;;;;;1.75;69.36;99514.28;5092056;28;20490;-47
2022/12/18 00:44:00;;;;;;;59.53;31.55;;;;;;;1.18;70.61;99513.59;5092012;28;20074;-47
2022/12/18 00:46:26;;;;;;;63.17;40.30;;;;;;;0.95;71.26;99526.53;5091907;28;20066;-48
2022/12/18 00:48:51;;;;;;;112.90;56.35;;;;;;;0.81;72.27;99521.63;5090517;28;20020;-47
2022/12/18 00:51:17;;;;;;;62.95;38.65;;;;;;;0.74;72.65;99520.44;5091909;28;20099;-47
2022/12/18 00:53:42;;;;;;;198.18;138.13;;;;;;;0.79;73.50;99518.31;5091134;28;20068;-48
2022/12/18 00:56:08;;;;;;;299.42;206.73;;;;;;;0.79;73.11;99521.72;5090492;28;20488;-47
2022/12/18 00:58:37;;;;;;;688.00;513.40;;;;;;;0.75;73.00;99520.31;5091839;28;20111;-47
2022/12/18 01:01:04;;;;;;;393.80;285.35;;;;;;;0.71;73.15;99518.09;5090410;28;20107;-47
2022/12/18 01:03:30;;;;;;;381.02;315.45;;;;;;;0.65;73.06;99519.38;5091757;28;20016;-47
2022/12/18 01:05:56;;;;;;;397.45;309.90;;;;;;;0.57;73.05;99525.09;5090421;28;20024;-47
2022/12/18 01:08:22;;;;;;;805.10;541.88;;;;;;;0.46;72.99;99530.25;5091602;28;20023;-47
2022/12/18 01:10:47;;;;;;;420.25;239.80;;;;;;;0.44;73.40;99528.72;5090451;28;20032;-47
2022/12/18 01:13:13;;;;;;;691.30;388.73;;;;;;;0.47;73.98;99534.50;5091745;28;20134;-47
2022/12/18 01:15:39;;;;;;;644.30;330.70;;;;;;;0.86;74.14;99539.34;5091638;28;20061;-47
2022/12/18 01:18:06;;;;;;;824.40;471.17;;;;;;;1.20;74.58;99550.50;5091625;28;20039;-48
2022/12/18 01:20:31;;;;;;;573.75;302.73;;;;;;;1.56;74.33;99545.97;5091594;28;20109;-47
2022/12/18 01:22:57;;;;;;;381.33;197.63;;;;;;;1.84;73.81;99544.59;5089957;28;20064;-48
2022/12/18 01:25:22;;;;;;;384.70;183.68;;;;;;;2.03;73.54;99543.09;5091867;28;20020;-47
2022/12/18 01:27:48;;;;;;;592.60;430.02;;;;;;;2.10;72.49;99537.31;5091755;28;20027;-47
2022/12/18 01:30:14;;;;;;;668.05;447.25;;;;;;;1.98;72.13;99546.91;5091519;28;20019;-47
2022/12/18 01:32:39;;;;;;;440.98;259.05;;;;;;;1.91;71.97;99552.69;5090168;28;20028;-47
2022/12/18 01:35:05;;;;;;;181.95;93.80;;;;;;;1.84;72.18;99554.13;5091756;28;20095;-47
2022/12/18 01:37:31;;;;;;;71.47;37.10;;;;;;;1.83;71.49;99558.47;5073302;28;20051;-47
2022/12/18 01:39:57;;;;;;;70.55;38.58;;;;;;;1.77;71.64;99557.22;5091485;28;20020;-47
2022/12/18 01:42:22;;;;;;;218.25;139.55;;;;;;;1.60;70.92;99563.72;5091346;28;20024;-47
2022/12/18 01:45:22;;;;;;;132.07;81.18;;;;;;;1.38;70.76;99561.16;5091462;28;20062;-47
2022/12/18 01:47:58;;;;;;;108.28;63.63;;;;;;;1.12;71.11;99564.00;5091221;28;20024;-47
2022/12/18 01:50:28;;;;;;;87.97;45.88;;;;;;;1.04;71.99;99568.94;5090146;28;20060;-47
2022/12/18 01:52:59;;;;;;;317.80;240.18;;;;;;;1.18;72.29;99568.69;5091378;28;20066;-47
2022/12/18 01:55:27;;;;;;;689.80;500.38;;;;;;;1.16;71.70;99575.75;5091333;28;20546;-47
2022/12/18 01:57:56;;;;;;;613.20;414.75;;;;;;;1.09;71.87;99566.03;5091323;28;20077;-47
2022/12/18 02:00:23;;;;;;;235.20;139.35;;;;;;;1.08;72.07;99569.53;5089952;28;20111;-47
2022/12/18 02:02:49;;;;;;;222.57;131.93;;;;;;;1.14;72.19;99569.88;5091283;28;20024;-47
2022/12/18 02:05:29;;;;;;;102.22;56.75;;;;;;;1.16;72.39;99577.53;5092804;28;20035;-47
2022/12/18 02:08:15;;;;;;;52.60;31.42;;;;;;;1.09;71.63;99578.94;5094783;28;20028;-48
2022/12/18 02:10:59;;;;;;;60.88;34.13;;;;;;;0.82;71.94;99574.09;5093550;28;20035;-47
2022/12/18 02:13:57;;;;;;;57.28;31.27;;;;;;;0.61;72.95;99576.56;5093392;28;20040;-47
2022/12/18 02:16:46;;;;;;;49.42;25.55;;;;;;;0.59;73.37;99579.25;5015727;28;20577;-47
2022/12/18 02:19:30;;;;;;;50.60;29.95;;;;;;;0.63;72.48;99580.66;5032425;28;20033;-47
2022/12/18 02:22:17;;;;;;;54.78;26.73;;;;;;;0.65;72.43;99581.38;5015691;28;20075;-47
2022/12/18 02:25:27;;;;;;;54.28;32.53;;;;;;;0.55;73.15;99586.38;5032014;28;20060;-47
2022/12/18 02:27:54;;;;;;;101.05;33.33;;;;;;;0.41;74.12;99583.19;5014960;28;20045;-47
2022/12/18 02:30:21;;;;;;;59.53;30.13;;;;;;;0.37;75.11;99590.34;5032050;28;20036;-47
2022/12/18 02:32:52;;;;;;;51.95;29.55;;;;;;;0.35;75.17;99589.63;5031952;28;20038;-47
2022/12/18 02:35:23;;;;;;;49.90;30.60;;;;;;;0.33;75.78;99587.16;5015379;28;20151;-47
2022/12/18 02:37:53;;;;;;;50.65;31.27;;;;;;;0.20;76.13;99583.81;5015244;28;20397;-47
2022/12/18 02:40:20;;;;;;;56.03;31.58;;;;;;;0.10;76.15;99580.25;4999329;28;20478;-47
2022/12/18 02:42:46;;;;;;;54.45;29.25;;;;;;;-0.01;76.45;99583.63;5031774;28;20116;-47
2022/12/18 02:45:12;;;;;;;56.53;28.98;;;;;;;-0.03;76.91;99581.13;5031656;28;20631;-47
2022/12/18 02:47:43;;;;;;;51.22;30.00;;;;;;;0.01;77.24;99588.69;5014918;28;20026;-47
2022/12/18 02:50:33;;;;;;;42.30;26.35;;;;;;;0.02;77.17;99588.56;5031763;28;20064;-47
2022/12/18 02:53:17;;;;;;;45.10;23.25;;;;;;;0.17;77.07;99600.34;5069152;28;20036;-47
2022/12/18 02:56:17;;;;;;;41.25;23.20;;;;;;;0.34;76.39;99593.13;5093959;28;20024;-47
2022/12/18 02:59:06;;;;;;;46.55;25.48;;;;;;;0.49;75.84;99583.44;5092482;28;20050;-48
2022/12/18 03:01:45;;;;;;;60.13;35.85;;;;;;;0.62;74.63;99584.16;5093794;28;20031;-47
2022/12/18 03:04:34;;;;;;;45.13;23.95;;;;;;;0.64;74.75;99581.47;5093768;28;20051;-47
2022/12/18 03:07:09;;;;;;;48.22;29.73;;;;;;;0.75;75.19;99591.84;5065064;28;20494;-48
2022/12/18 03:09:39;;;;;;;106.68;28.95;;;;;;;0.82;74.95;99594.78;5092357;28;20040;-47
2022/12/18 03:12:23;;;;;;;47.60;27.17;;;;;;;0.83;75.30;99592.09;5093526;28;20043;-47
2022/12/18 03:15:14;;;;;;;40.30;24.40;;;;;;;0.97;75.50;99591.84;5092212;28;20129;-47
2022/12/18 03:17:45;;;;;;;38.90;24.02;;;;;;;0.97;74.83;99584.09;5093461;28;20494;-47
2022/12/18 03:20:18;;;;;;;43.85;24.08;;;;;;;1.08;75.46;99577.28;5092270;28;20043;-47
2022/12/18 03:22:49;;;;;;;38.13;22.73;;;;;;;1.28;75.01;99580.94;5093119;28;20554;-48
2022/12/18 03:25:17;;;;;;;42.08;23.33;;;;;;;1.34;73.39;99586.44;5093333;28;20057;-47
2022/12/18 03:27:51;;;;;;;42.80;24.23;;;;;;;1.33;73.30;99579.63;5093220;28;20056;-47
2022/12/18 03:30:18;;;;;;;42.97;24.20;;;;;;;1.38;73.35;99590.44;5093543;28;20101;-47
2022/12/18 03:32:48;;;;;;;42.72;24.08;;;;;;;1.56;73.58;99587.38;5091843;28;20103;-47
2022/12/18 03:35:20;;;;;;;41.28;23.88;;;;;;;1.64;72.62;99591.94;5091834;28;20051;-47
2022/12/18 03:37:46;;;;;;;48.80;25.38;;;;;;;1.59;72.60;99587.13;5091868;28;20081;-48
2022/12/18 03:40:11;;;;;;;52.88;26.52;;;;;;;1.64;72.02;99582.41;5091753;28;20024;-47
2022/12/18 03:42:43;;;;;;;44.75;23.35;;;;;;;1.64;71.88;99585.00;5092989;28;20020;-47
2022/12/18 03:45:27;;;;;;;46.63;26.58;;;;;;;1.61;71.30;99582.66;5092967;28;20085;-47
2022/12/18 03:48:20;;;;;;;52.72;31.50;;;;;;;1.54;71.53;99579.72;5092935;28;20028;-48
2022/12/18 03:50:57;;;;;;;84.68;43.13;;;;;;;1.63;71.89;99582.53;5091488;28;20173;-47
2022/12/18 03:53:32;;;;;;;55.70;27.73;;;;;;;1.67;71.52;99577.00;5092946;28;20050;-48
2022/12/18 03:56:00;;;;;;;41.58;21.90;;;;;;;1.63;71.37;99578.19;5091474;28;20405;-48
2022/12/18 03:58:28;;;;;;;42.05;22.88;;;;;;;1.65;71.92;99584.06;5091385;28;20036;-48
2022/12/18 04:00:59;;;;;;;48.00;25.60;;;;;;;1.73;71.31;99586.88;5092594;28;20448;-48
2022/12/18 04:03:26;;;;;;;85.28;29.10;;;;;;;1.71;71.96;99582.75;5092665;28;20052;-47
2022/12/18 04:05:55;;;;;;;27.70;16.13;;;;;;;1.94;71.40;99586.09;5091175;28;20028;-48
2022/12/18 04:08:21;;;;;;;26.85;16.83;;;;;;;2.20;70.57;99594.38;5092690;28;20012;-48
2022/12/18 04:10:50;;;;;;;26.20;16.85;;;;;;;2.64;69.82;99579.53;5091294;28;20403;-48
2022/12/18 04:13:29;;;;;;;30.40;19.02;;;;;;;3.16;69.51;99579.53;5092415;28;20020;-48
2022/12/18 04:15:55;;;;;;;28.85;17.48;;;;;;;3.56;67.76;99589.91;5091421;28;20036;-48
2022/12/18 04:18:20;;;;;;;24.60;15.48;;;;;;;3.80;65.33;99571.38;5092421;28;20516;-48
2022/12/18 04:20:46;;;;;;;28.02;16.05;;;;;;;3.73;64.87;99577.22;5090975;28;20028;-48
2022/12/18 04:23:11;;;;;;;26.08;16.23;;;;;;;3.73;65.33;99579.81;5092123;28;20036;-48
2022/12/18 04:25:37;;;;;;;25.73;15.93;;;;;;;3.66;64.54;99574.31;5092170;28;20119;-48
2022/12/18 04:28:03;;;;;;;22.65;14.82;;;;;;;3.59;65.80;99578.44;5089942;28;20430;-48
2022/12/18 04:30:28;;;;;;;27.73;15.90;;;;;;;3.50;65.66;99567.06;5092134;28;20020;-48
2022/12/18 04:32:54;;;;;;;23.35;16.15;;;;;;;3.52;67.27;99574.72;5090851;28;20038;-48
2022/12/18 04:35:19;;;;;;;28.95;15.73;;;;;;;3.56;66.17;99570.88;5092126;28;20082;-47
2022/12/18 04:37:45;;;;;;;37.58;18.20;;;;;;;3.38;65.52;99571.56;5090763;28;20060;-48
2022/12/18 04:40:11;;;;;;;31.73;16.13;;;;;;;3.43;66.67;99578.13;5090734;28;20020;-48
2022/12/18 04:42:37;;;;;;;32.08;19.23;;;;;;;3.54;67.59;99578.84;5090757;28;20035;-48
2022/12/18 04:45:03;;;;;;;31.90;18.05;;;;;;;3.58;67.26;99584.56;5090646;28;20028;-48
2022/12/18 04:47:28;;;;;;;35.03;19.77;;;;;;;3.60;66.65;99578.31;5092140;28;20027;-48
2022/12/18 04:49:54;;;;;;;22.23;15.57;;;;;;;3.53;65.32;99576.38;5090658;28;20024;-48
2022/12/18 04:52:19;;;;;;;23.75;14.02;;;;;;;3.51;64.76;99586.06;5090572;28;20451;-48
2022/12/18 04:54:48;;;;;;;24.08;14.15;;;;;;;3.35;65.11;99584.78;5090558;28;20024;-48
2022/12/18 04:57:13;;;;;;;21.58;13.85;;;;;;;3.22;65.99;99588.53;5090564;28;20039;-48
2022/12/18 04:59:39;;;;;;;24.13;16.35;;;;;;;3.03;66.15;99594.47;5091791;28;20024;-48
2022/12/18 05:02:05;;;;;;;23.08;17.30;;;;;;;2.84;66.41;99596.03;5091809;28;20031;-48
2022/12/18 05:04:31;;;;;;;35.20;19.40;;;;;;;2.63;66.47;99595.22;5091788;28;20029;-48
2022/12/18 05:06:56;;;;;;;29.35;18.50;;;;;;;2.48;67.42;99595.53;5091755;28;20039;-48
2022/12/18 05:09:23;;;;;;;23.38;15.43;;;;;;;2.45;67.80;99594.94;5090357;28;20080;-48
2022/12/18 05:11:48;;;;;;;26.52;17.05;;;;;;;2.43;68.17;99602.03;5091682;28;20016;-48
2022/12/18 05:14:14;;;;;;;23.67;16.55;;;;;;;2.40;68.40;99609.09;5090398;28;20046;-48
2022/12/18 05:16:39;;;;;;;25.27;15.98;;;;;;;2.43;68.20;99610.63;5091913;28;20028;-47
2022/12/18 05:19:05;;;;;;;32.92;18.70;;;;;;;2.35;68.31;99613.00;5090340;28;20036;-48
2022/12/18 05:21:30;;;;;;;26.10;16.05;;;;;;;2.31;68.52;99606.44;5090235;28;20020;-48
2022/12/18 05:23:56;;;;;;;35.78;20.67;;;;;;;2.16;68.74;99606.72;5090112;28;20050;-48
2022/12/18 05:26:21;;;;;;;27.73;14.77;;;;;;;2.13;69.05;99614.75;5091486;28;20089;-47
2022/12/18 05:28:47;;;;;;;45.00;29.48;;;;;;;2.16;69.75;99622.25;5090194;28;20020;-48
2022/12/18 05:31:13;;;;;;;37.42;24.23;;;;;;;2.11;69.90;99619.25;5091600;28;20031;-48
2022/12/18 05:33:39;;;;;;;27.55;18.38;;;;;;;2.32;69.89;99621.03;5091504;28;20027;-48
2022/12/18 05:36:07;;;;;;;31.55;21.15;;;;;;;2.49;69.59;99614.47;5090166;28;20038;-48
2022/12/18 05:38:38;;;;;;;27.05;14.85;;;;;;;2.69;68.62;99612.84;5090547;28;20511;-48
2022/12/18 05:41:05;;;;;;;24.48;14.25;;;;;;;2.95;68.76;99614.09;5095431;28;20024;-48
2022/12/18 05:43:31;;;;;;;20.08;14.02;;;;;;;3.38;67.20;99613.06;5095340;28;20017;-48
2022/12/18 05:45:57;;;;;;;27.50;16.02;;;;;;;3.55;67.26;99610.78;5095263;28;20398;-48
2022/12/18 05:48:23;;;;;;;27.88;15.20;;;;;;;3.78;66.35;99612.22;5095105;28;20020;-48
2022/12/18 05:50:50;;;;;;;28.30;18.65;;;;;;;3.90;66.39;99612.09;5093842;28;20027;-48
2022/12/18 05:53:17;;;;;;;27.98;17.25;;;;;;;4.13;66.93;99615.28;5077218;28;20066;-48
2022/12/18 05:55:44;;;;;;;22.40;15.27;;;;;;;4.39;66.42;99612.94;5095068;28;20496;-48
2022/12/18 05:58:11;;;;;;;27.98;18.65;;;;;;;4.47;65.35;99620.06;5093753;28;20401;-48
2022/12/18 06:00:42;;;;;;;25.10;15.02;;;;;;;4.55;64.12;99626.22;5093693;28;20058;-48
2022/12/18 06:03:09;;;;;;;27.38;17.38;;;;;;;4.45;64.33;99624.56;5094969;28;20028;-48
2022/12/18 06:05:37;;;;;;;26.73;14.82;;;;;;;4.72;64.69;99629.06;5094853;28;20032;-48
2022/12/18 06:08:03;;;;;;;22.98;17.55;;;;;;;5.02;64.19;99630.63;5094829;28;20048;-48
2022/12/18 06:10:29;;;;;;;68.10;19.35;;;;;;;5.07;63.77;99648.41;5094678;28;20055;-48
2022/12/18 06:12:54;;;;;;;24.33;17.08;;;;;;;4.95;64.69;99652.94;5093489;28;20043;-48
2022/12/18 06:15:20;;;;;;;24.45;18.23;;;;;;;4.92;64.45;99664.47;5093404;28;20036;-48
2022/12/18 06:17:46;;;;;;;26.92;17.35;;;;;;;4.83;64.55;99659.28;5076441;28;20031;-48
2022/12/18 06:20:11;;;;;;;24.45;18.70;;;;;;;4.87;64.16;99655.44;5094640;28;20028;-48
2022/12/18 06:22:37;;;;;;;26.00;17.95;;;;;;;5.10;63.67;99661.97;5094220;28;20016;-49
2022/12/18 06:25:03;;;;;;;23.98;15.63;;;;;;;5.22;61.46;99662.63;5094630;28;20107;-48
2022/12/18 06:27:28;;;;;;;26.15;16.98;;;;;;;5.23;62.96;99660.84;5094412;28;20024;-48
2022/12/18 06:29:54;;;;;;;21.65;16.23;;;;;;;5.30;62.56;99657.53;5093133;28;20047;-48
2022/12/18 06:32:20;;;;;;;23.52;17.65;;;;;;;5.10;61.60;99656.75;5094428;28;20035;-48
2022/12/18 06:34:45;;;;;;;20.10;13.88;;;;;;;5.09;62.15;99675.94;5094344;28;20145;-48
2022/12/18 06:37:11;;;;;;;48.65;43.38;;;;;;;4.93;61.61;99671.31;5092992;28;20032;-48
2022/12/18 06:39:36;;;;;;;24.60;16.67;;;;;;;4.75;61.13;99673.81;5094209;28;20027;-48
2022/12/18 06:42:03;;;;;;;24.65;18.45;;;;;;;4.78;62.28;99683.09;5094176;28;20036;-48
2022/12/18 06:44:28;;;;;;;18.35;13.07;;;;;;;4.78;62.02;99693.50;5094170;28;20026;-48
2022/12/18 06:46:55;;;;;;;19.02;12.38;;;;;;;4.92;62.53;99690.47;5094157;28;20250;-48
2022/12/18 06:49:21;;;;;;;24.52;15.23;;;;;;;4.94;63.49;99693.75;5092651;28;20116;-48
2022/12/18 06:51:47;;;;;;;29.27;16.67;;;;;;;5.05;63.23;99684.16;5091670;28;20383;-48
2022/12/18 06:54:16;;;;;;;25.95;16.92;;;;;;;4.94;63.51;99683.34;5094002;28;20020;-48
2022/12/18 06:56:41;;;;;;;23.02;15.50;;;;;;;4.80;64.09;99689.00;5092621;28;20024;-48
2022/12/18 06:59:07;;;;;;;20.08;14.50;;;;;;;4.80;65.05;99684.59;5093904;28;20028;-48
2022/12/18 07:01:33;;;;;;;20.90;14.88;;;;;;;4.83;64.23;99686.13;5093794;28;20063;-48
2022/12/18 07:03:58;;;;;;;22.48;15.30;;;;;;;4.61;63.94;99687.22;5092516;28;20031;-48
2022/12/18 07:06:26;;;;;;;23.63;15.77;;;;;;;4.49;65.33;99693.53;5093696;28;20024;-48
2022/12/18 07:08:53;;;;;;;31.17;16.13;;;;;;;4.38;65.00;99695.28;5092357;28;20059;-48
2022/12/18 07:11:20;;;;;;;23.77;16.23;;;;;;;4.37;65.72;99700.63;5093637;28;20024;-48
2022/12/18 07:13:46;;;;;;;25.00;16.27;;;;;;;4.45;66.75;99700.78;5092358;28;20060;-48
2022/12/18 07:16:18;;;;;;;19.38;14.73;;;;;;;4.63;65.45;99700.91;5093527;28;20021;-48
2022/12/18 07:18:44;;;;;;;24.13;14.23;;;;;;;4.76;65.46;99704.03;5093576;28;20140;-48
2022/12/18 07:21:16;;;;;;;24.27;19.23;;;;;;;4.66;64.81;99692.81;5092151;28;20464;-48
2022/12/18 07:23:42;;;;;;;28.60;18.45;;;;;;;4.36;64.73;99706.78;5093207;28;20056;-48
2022/12/18 07:26:10;;;;;;;35.03;22.63;;;;;;;4.20;65.49;99707.28;5093342;28;20502;-48
2022/12/18 07:28:37;;;;;;;41.08;28.95;;;;;;;4.28;66.16;99712.63;5093183;28;20508;-47
2022/12/18 07:31:05;;;;;;;80.60;41.92;;;;;;;4.29;65.29;99708.28;5093295;28;20027;-48
2022/12/18 07:33:32;;;;;;;56.15;32.85;;;;;;;4.57;65.92;99717.06;5093207;28;20028;-48
2022/12/18 07:35:59;;;;;;;77.97;40.80;;;;;;;5.08;64.40;99715.13;5093214;28;20016;-48
2022/12/18 07:38:25;;;;;;;202.10;79.40;;;;;;;5.52;64.28;99705.00;5093115;28;20032;-48
2022/12/18 07:40:50;;;;;;;291.08;116.60;;;;;;;6.09;62.25;99708.31;5092059;28;20031;-48
2022/12/18 07:43:16;;;;;;;502.05;200.07;;;;;;;6.51;61.21;99705.16;5093033;28;20024;-48
2022/12/18 07:45:43;;;;;;;382.73;156.95;;;;;;;6.98;60.00;99712.75;5092887;28;20028;-48
2022/12/18 07:48:08;;;;;;;177.95;82.25;;;;;;;7.19;58.52;99714.22;5092862;28;20490;-48
2022/12/18 07:50:34;;;;;;;115.07;50.63;;;;;;;6.83;58.30;99708.22;5091524;28;20031;-48
2022/12/18 07:53:03;;;;;;;56.58;22.60;;;;;;;6.60;58.78;99713.91;5092788;28;20058;-48
2022/12/18 07:55:30;;;;;;;63.63;51.17;;;;;;;6.38;59.21;99717.78;5092770;28;20443;-48
2022/12/18 07:57:56;;;;;;;30.42;19.88;;;;;;;6.28;59.56;99715.22;5092680;28;20034;-48
2022/12/18 08:00:22;;;;;;;20.80;16.70;;;;;;;6.12;59.73;99713.25;5092634;28;20020;-48
2022/12/18 08:02:47;;;;;;;22.63;16.05;;;;;;;5.96;59.84;99719.09;5092719;28;20161;-48
2022/12/18 08:05:13;;;;;;;36.33;24.63;;;;;;;5.70;59.76;99721.53;5092631;28;20016;-48
2022/12/18 08:07:39;;;;;;;19.15;14.85;;;;;;;5.47;60.61;99730.63;5091121;28;20482;-48
2022/12/18 08:10:06;;;;;;;23.38;14.82;;;;;;;5.33;61.09;99730.13;5092493;28;20028;-48
2022/12/18 08:12:31;;;;;;;20.48;13.68;;;;;;;5.39;61.96;99729.56;5074271;28;20085;-48
2022/12/18 08:14:57;;;;;;;19.75;13.77;;;;;;;5.57;62.99;99724.44;5091111;28;20012;-48
2022/12/18 08:17:22;;;;;;;19.05;14.07;;;;;;;5.64;61.51;99719.50;5092383;28;20058;-48
2022/12/18 08:19:48;;;;;;;18.58;12.57;;;;;;;6.02;62.68;99712.50;5092651;28;20059;-48
2022/12/18 08:22:14;;;;;;;17.52;12.50;;;;;;;6.70;60.18;99703.38;5091269;28;20078;-48
2022/12/18 08:24:39;;;;;;;18.75;12.73;;;;;;;7.03;58.20;99701.03;5092114;28;20052;-48
2022/12/18 08:27:05;;;;;;;15.38;10.95;;;;;;;7.36;57.83;99683.78;5092484;28;20028;-49
2022/12/18 08:29:31;;;;;;;19.33;11.23;;;;;;;7.90;56.75;99686.97;5092165;28;20113;-48
2022/12/18 08:31:57;;;;;;;18.15;12.05;;;;;;;8.30;56.10;99688.06;5092111;28;20027;-48
2022/12/18 08:34:23;;;;;;;17.00;10.98;;;;;;;8.99;55.26;99690.41;5091127;28;20031;-48
2022/12/18 08:36:48;;;;;;;18.15;12.95;;;;;;;9.33;53.73;99694.63;5090722;28;20516;-49
2022/12/18 08:39:14;;;;;;;16.52;11.70;;;;;;;10.08;53.77;99696.81;5092127;28;20445;-48
2022/12/18 08:41:40;;;;;;;17.92;10.82;;;;;;;10.97;51.03;99689.31;5091987;28;20073;-48
2022/12/18 08:46:52;;;;;;;14.10;11.25;;;;;;;11.43;47.98;99693.66;5092308;28;20123;-48
2022/12/18 08:49:17;;;;;;;18.10;11.18;;;;;;;11.40;48.56;99692.16;5091772;28;20099;-48
2022/12/18 08:51:43;;;;;;;14.88;11.18;;;;;;;11.48;47.11;99690.47;5091941;28;20020;-48
2022/12/18 08:54:11;;;;;;;11.73;9.93;;;;;;;11.55;47.63;99692.19;5090877;28;20070;-49
2022/12/18 08:56:37;;;;;;;12.02;10.10;;;;;;;11.38;46.24;99688.91;5091819;28;20085;-49
2022/12/18 08:59:04;;;;;;;13.15;10.55;;;;;;;11.39;46.40;99703.69;5091827;28;20448;-48
2022/12/18 09:01:30;;;;;;;14.60;10.45;;;;;;;11.76;45.48;99703.78;5091823;28;20537;-49
2022/12/18 09:03:55;;;;;;;14.27;9.90;;;;;;;11.93;44.42;99694.72;5091791;28;20060;-48
2022/12/18 09:06:22;;;;;;;12.57;8.82;;;;;;;11.95;44.09;99686.63;5091663;28;20052;-49
2022/12/18 09:08:47;;;;;;;17.92;10.07;;;;;;;11.84;45.35;99685.28;5090408;28;20475;-49
2022/12/18 09:11:25;;;;;;;58.30;11.75;;;;;;;11.80;45.14;99679.56;5090420;28;20028;-48
2022/12/18 09:13:51;;;;;;;31.17;9.75;;;;;;;11.88;45.16;99696.25;5092726;28;20028;-48
2022/12/18 09:16:18;;;;;;;13.45;10.30;;;;;;;12.05;45.33;99702.13;5094511;28;20085;-49
2022/12/18 09:18:43;;;;;;;17.00;9.63;;;;;;;12.09;44.65;99708.66;5111655;28;20043;-48
2022/12/18 09:21:17;;;;;;;14.40;10.52;;;;;;;11.92;44.50;99713.31;5095749;28;20016;-48
2022/12/18 09:23:44;;;;;;;14.95;10.02;;;;;;;12.17;44.17;99709.38;5094435;28;20083;-48
2022/12/18 09:26:09;;;;;;;15.85;10.48;;;;;;;12.64;43.91;99714.31;5095707;28;20025;-48
2022/12/18 09:28:35;;;;;;;14.98;10.48;;;;;;;13.02;42.96;99716.66;5095884;28;20032;-48
2022/12/18 09:31:08;;;;;;;15.60;9.95;;;;;;;13.12;43.08;99719.75;5095582;28;20026;-48
2022/12/18 09:33:37;;;;;;;15.23;12.55;;;;;;;13.28;42.03;99718.66;5094534;28;20107;-49
2022/12/18 09:36:06;;;;;;;20.05;10.98;;;;;;;13.30;42.17;99716.69;5095460;28;20031;-48
2022/12/18 09:38:32;;;;;;;101.07;59.45;;;;;;;13.11;42.07;99721.59;5095912;28;20394;-49
2022/12/18 09:41:35;;;;;;;67.70;30.95;;;;;;;13.26;42.84;99718.88;5095366;28;20078;-48
2022/12/18 09:44:41;;;;;;;20.73;13.35;;;;;;;13.30;42.28;99721.97;5095638;28;20027;-46
2022/12/18 09:47:22;;;;;;;17.02;9.80;;;;;;;13.18;42.45;99725.09;5092292;28;20035;-47
2022/12/18 09:49:57;;;;;;;11.40;8.73;;;;;;;13.29;41.91;99718.50;5095260;28;20024;-47
2022/12/18 09:52:43;;;;;;;11.30;9.30;;;;;;;13.33;42.31;99716.31;5095513;28;20056;-47
2022/12/18 09:55:31;;;;;;;13.57;8.98;;;;;;;13.54;42.43;99734.72;5095141;28;20405;-47
2022/12/18 09:58:40;;;;;;;12.55;9.55;;;;;;;13.29;42.44;99729.06;5095161;28;20028;-47
2022/12/18 10:01:16;;;;;;;13.15;8.20;;;;;;;13.52;42.33;99720.91;5052413;28;20533;-47
2022/12/18 10:03:41;;;;;;;9.30;8.20;;;;;;;13.84;41.51;99731.81;5035837;28;20031;-47
2022/12/18 10:06:13;;;;;;;15.48;9.40;;;;;;;13.75;42.11;99725.91;5052429;28;20104;-47
2022/12/18 10:09:15;;;;;;;13.65;9.02;;;;;;;13.43;42.63;99729.16;5052371;28;20115;-47
2022/12/18 10:12:01;;;;;;;13.15;8.65;;;;;;;13.76;42.15;99731.97;5052339;28;20112;-47
2022/12/18 10:14:41;;;;;;;13.82;8.77;;;;;;;13.55;41.59;99727.63;5052259;28;20148;-46
2022/12/18 10:17:34;;;;;;;10.40;8.23;;;;;;;12.90;43.25;99722.44;5035516;28;20037;-47
2022/12/18 10:20:04;;;;;;;21.52;19.17;;;;;;;13.29;43.35;99723.78;5052196;28;20048;-47
2022/12/18 10:22:51;;;;;;;12.95;10.35;;;;;;;13.81;42.05;99721.66;5051988;28;20044;-47
2022/12/18 10:25:26;;;;;;;12.82;11.10;;;;;;;13.91;41.55;99723.94;5052042;28;20037;-46
2022/12/18 10:27:57;;;;;;;17.33;9.68;;;;;;;13.58;42.17;99714.84;5051986;28;20037;-47
2022/12/18 10:30:25;;;;;;;12.52;9.20;;;;;;;13.60;42.30;99706.72;5035246;28;20041;-47
2022/12/18 10:32:51;;;;;;;12.30;9.27;;;;;;;13.97;42.01;99707.31;5090529;28;20050;-46
2022/12/18 10:35:24;;;;;;;13.20;8.93;;;;;;;14.15;41.32;99702.31;5094529;28;20055;-46
2022/12/18 10:38:19;;;;;;;12.18;8.68;;;;;;;14.31;41.27;99701.13;5094354;28;20028;-46
2022/12/18 10:41:11;;;;;;;10.07;8.73;;;;;;;14.30;40.78;99706.59;5075590;28;20028;-46
2022/12/18 10:43:39;;;;;;;12.50;8.57;;;;;;;14.37;40.59;99704.81;5094295;28;20081;-47
2022/12/18 10:46:14;;;;;;;10.02;8.55;;;;;;;13.94;41.92;99711.19;5094088;28;20016;-46
2022/12/18 10:48:56;;;;;;;11.43;9.23;;;;;;;13.62;42.76;99698.63;5094120;28;20444;-47
2022/12/18 10:51:28;;;;;;;12.82;9.02;;;;;;;13.77;42.62;99694.03;5094260;28;20490;-46
2022/12/18 10:53:59;;;;;;;16.20;10.43;;;;;;;14.12;42.24;99686.84;5094041;28;20032;-47
2022/12/18 10:56:27;;;;;;;22.00;15.23;;;;;;;14.37;41.48;99683.69;5093942;28;20020;-47
2022/12/18 10:59:01;;;;;;;17.48;11.95;;;;;;;14.58;41.43;99688.81;5092671;28;20031;-47
2022/12/18 11:01:28;;;;;;;18.40;11.20;;;;;;;14.94;41.18;99686.81;5094151;28;20036;-46
2022/12/18 11:03:54;;;;;;;17.38;10.10;;;;;;;15.30;40.24;99696.13;5092589;28;20086;-46
2022/12/18 11:06:24;;;;;;;13.57;9.60;;;;;;;15.62;40.38;99683.84;5093778;28;20020;-47
2022/12/18 11:09:04;;;;;;;17.85;9.65;;;;;;;16.15;39.30;99694.22;5093674;28;20080;-47
2022/12/18 11:11:32;;;;;;;12.43;9.55;;;;;;;16.28;39.13;99680.13;5093682;28;20024;-47
2022/12/18 11:14:05;;;;;;;15.00;9.10;;;;;;;16.03;39.61;99682.69;5092379;28;20024;-47
2022/12/18 11:16:42;;;;;;;15.25;9.45;;;;;;;15.97;39.12;99678.22;5093634;28;20024;-47
2022/12/18 11:19:32;;;;;;;11.00;9.25;;;;;;;15.67;40.06;99673.44;5092237;28;20519;-47
2022/12/18 11:22:00;;;;;;;12.60;8.27;;;;;;;15.90;39.70;99669.53;5093438;28;20081;-47
2022/12/18 11:24:34;;;;;;;12.00;8.57;;;;;;;16.28;39.64;99661.56;5093265;28;20047;-47
2022/12/18 11:27:03;;;;;;;11.15;7.72;;;;;;;16.60;39.60;99658.09;5093314;28;20030;-47
2022/12/18 11:29:35;;;;;;;9.27;6.80;;;;;;;16.64;39.32;99649.50;5093230;28;20490;-47
2022/12/18 11:32:44;;;;;;;12.13;7.72;;;;;;;16.23;39.14;99634.09;5092187;28;20024;-47
2022/12/18 11:35:22;;;;;;;13.13;6.78;;;;;;;16.17;39.65;99641.84;5092004;28;20165;-46
2022/12/18 11:37:57;;;;;;;11.10;7.28;;;;;;;16.08;40.21;99639.69;5092695;28;20024;-47
2022/12/18 11:40:27;;;;;;;;;;;;;;;16.02;40.63;99637.88;5093581;28;20072;-47
2022/12/18 11:42:53;;;;;;;14.00;7.28;;;;;;;15.64;41.33;99639.47;5093356;28;19912;-47